createdAt,value
2023-03-11T00:01:04.701Z,97818.00
2023-03-11T00:03:31.264Z,97815.44
2023-03-11T00:06:01.507Z,97811.19
2023-03-11T00:08:28.499Z,97812.00
2023-03-11T00:10:58.734Z,97807.72
2023-03-11T00:13:25.319Z,97806.03
2023-03-11T00:15:55.982Z,97816.16
2023-03-11T00:18:26.834Z,97798.31
2023-03-11T00:20:54.750Z,97802.56
2023-03-11T00:23:21.345Z,97801.69
2023-03-11T00:25:48.042Z,97794.88
2023-03-11T00:28:15.924Z,97794.00
2023-03-11T00:30:44.798Z,97781.28
2023-03-11T00:33:14.775Z,97777.88
2023-03-11T00:35:42.543Z,97777.03
2023-03-11T00:38:13.634Z,97761.75
2023-03-11T00:40:40.361Z,97773.66
2023-03-11T00:43:07.011Z,97775.34
2023-03-11T00:45:34.001Z,97765.94
2023-03-11T00:48:00.778Z,97771.91
2023-03-11T00:50:33.164Z,97761.72
2023-03-11T00:53:00.414Z,97749.81
2023-03-11T00:55:29.904Z,97754.09
2023-03-11T00:58:00.077Z,97750.72
2023-03-11T01:00:27.779Z,97739.69
2023-03-11T01:02:56.468Z,97733.81
2023-03-11T01:05:26.452Z,97733.81
2023-03-11T01:07:53.160Z,97724.53
2023-03-11T01:10:20.063Z,97731.31
2023-03-11T01:12:46.615Z,97726.28
2023-03-11T01:15:31.552Z,97723.72
2023-03-11T01:17:58.170Z,97709.34
2023-03-11T01:20:24.725Z,97715.25
2023-03-11T01:22:52.111Z,97719.53
2023-03-11T01:25:21.375Z,97717.84
2023-03-11T01:27:48.026Z,97720.41
2023-03-11T01:30:20.265Z,97712.78
2023-03-11T01:32:47.011Z,97706.00
2023-03-11T01:35:16.249Z,97709.41
2023-03-11T01:37:43.065Z,97700.09
2023-03-11T01:40:16.849Z,97702.63
2023-03-11T01:42:43.423Z,97701.78
2023-03-11T01:45:41.497Z,97703.47
2023-03-11T01:48:10.713Z,97701.78
2023-03-11T01:50:42.909Z,97700.94
2023-03-11T01:53:10.861Z,97696.69
2023-03-11T01:55:38.177Z,97693.31
2023-03-11T01:58:07.939Z,97689.91
2023-03-11T02:00:36.406Z,97685.72
2023-03-11T02:03:09.814Z,97677.25
2023-03-11T02:05:36.705Z,97676.41
2023-03-11T02:08:03.372Z,97674.72
2023-03-11T02:10:30.863Z,97667.91
2023-03-11T02:12:57.763Z,97665.38
2023-03-11T02:15:25.788Z,97664.53
2023-03-11T02:17:53.641Z,97667.06
2023-03-11T02:20:49.491Z,97665.41
2023-03-11T02:23:18.756Z,97673.03
2023-03-11T02:26:00.230Z,97667.94
2023-03-11T02:28:28.297Z,97662.88
2023-03-11T02:30:56.560Z,97658.69
2023-03-11T02:33:29.181Z,97662.09
2023-03-11T02:35:57.544Z,97650.28
2023-03-11T02:38:24.367Z,97650.28
2023-03-11T02:40:57.090Z,97644.34
2023-03-11T02:43:33.639Z,97645.16
2023-03-11T02:46:01.677Z,97639.22
2023-03-11T02:48:29.559Z,97629.88
2023-03-11T02:50:57.198Z,97634.97
2023-03-11T02:53:25.505Z,97618.00
2023-03-11T02:55:52.008Z,97621.38
2023-03-11T02:58:18.553Z,97617.97
2023-03-11T03:00:45.119Z,97616.25
2023-03-11T03:03:11.824Z,97612.84
2023-03-11T03:05:38.390Z,97610.28
2023-03-11T03:08:05.231Z,97611.09
2023-03-11T03:10:32.766Z,97606.00
2023-03-11T03:12:59.337Z,97602.59
2023-03-11T03:15:26.005Z,97594.94
2023-03-11T03:17:52.636Z,97605.13
2023-03-11T03:20:20.717Z,97591.56
2023-03-11T03:22:47.422Z,97594.06
2023-03-11T03:25:13.946Z,97588.16
2023-03-11T03:27:40.598Z,97585.56
2023-03-11T03:30:09.064Z,97575.41
2023-03-11T03:32:35.872Z,97574.53
2023-03-11T03:35:03.154Z,97576.22
2023-03-11T03:37:33.866Z,97571.16
2023-03-11T03:40:00.700Z,97571.16
2023-03-11T03:42:28.288Z,97564.34
2023-03-11T03:44:54.819Z,97560.94
2023-03-11T03:47:21.363Z,97558.41
2023-03-11T03:49:47.898Z,97556.66
2023-03-11T03:52:15.221Z,97554.97
2023-03-11T03:54:41.980Z,97544.81
2023-03-11T03:57:08.567Z,97549.09
2023-03-11T03:59:35.137Z,97543.16
2023-03-11T04:02:01.872Z,97547.38
2023-03-11T04:04:28.733Z,97538.94
2023-03-11T04:06:55.250Z,97533.81
2023-03-11T04:09:21.989Z,97537.19
2023-03-11T04:11:48.529Z,97523.63
2023-03-11T04:14:15.188Z,97515.97
2023-03-11T04:16:41.931Z,97517.66
2023-03-11T04:19:08.803Z,97517.66
2023-03-11T04:21:35.659Z,97505.78
2023-03-11T04:24:02.504Z,97512.53
2023-03-11T04:26:29.534Z,97505.78
2023-03-11T04:28:56.143Z,97507.47
2023-03-11T04:31:22.777Z,97492.16
2023-03-11T04:33:49.285Z,97495.56
2023-03-11T04:36:15.831Z,97498.97
2023-03-11T04:38:42.381Z,97502.38
2023-03-11T04:41:08.977Z,97499.84
2023-03-11T04:43:35.494Z,97493.09
2023-03-11T04:46:02.069Z,97494.81
2023-03-11T04:48:28.678Z,97490.59
2023-03-11T04:50:55.617Z,97477.09
2023-03-11T04:53:23.032Z,97478.78
2023-03-11T04:55:50.554Z,97473.72
2023-03-11T04:58:17.270Z,97469.53
2023-03-11T05:00:43.835Z,97472.13
2023-03-11T05:03:10.482Z,97458.56
2023-03-11T05:05:37.088Z,97464.50
2023-03-11T05:08:04.550Z,97461.19
2023-03-11T05:10:32.137Z,97452.72
2023-03-11T05:12:58.783Z,97451.84
2023-03-11T05:15:25.529Z,97440.00
2023-03-11T05:17:52.077Z,97442.53
2023-03-11T05:20:18.868Z,97423.91
2023-03-11T05:22:45.433Z,97425.63
2023-03-11T05:25:12.009Z,97422.25
2023-03-11T05:27:38.566Z,97421.41
2023-03-11T05:30:05.638Z,97422.28
2023-03-11T05:32:32.237Z,97411.28
2023-03-11T05:34:58.848Z,97418.03
2023-03-11T05:37:25.513Z,97414.69
2023-03-11T05:39:52.753Z,97413.00
2023-03-11T05:42:21.384Z,97411.31
2023-03-11T05:44:48.135Z,97411.34
2023-03-11T05:47:16.744Z,97412.22
2023-03-11T05:49:43.624Z,97415.59
2023-03-11T05:52:10.219Z,97413.94
2023-03-11T05:54:36.753Z,97415.63
2023-03-11T05:57:03.392Z,97412.22
2023-03-11T05:59:30.052Z,97414.81
2023-03-11T06:01:56.578Z,97413.13
2023-03-11T06:04:23.202Z,97416.50
2023-03-11T06:06:49.873Z,97415.66
2023-03-11T06:09:16.795Z,97417.34
2023-03-11T06:11:43.870Z,97414.00
2023-03-11T06:14:13.444Z,97414.81
2023-03-11T06:16:41.691Z,97408.91
2023-03-11T06:19:09.260Z,97414.84
2023-03-11T06:21:35.915Z,97410.63
2023-03-11T06:24:02.651Z,97413.16
2023-03-11T06:26:29.392Z,97403.84
2023-03-11T06:28:55.960Z,97391.13
2023-03-11T06:31:25.498Z,97397.91
2023-03-11T06:33:52.734Z,97384.34
2023-03-11T06:36:20.248Z,97370.78
2023-03-11T06:38:48.450Z,97367.41
2023-03-11T06:41:15.080Z,97369.09
2023-03-11T06:43:41.684Z,97364.84
2023-03-11T06:46:10.510Z,97366.56
2023-03-11T06:48:37.344Z,97355.53
2023-03-11T06:51:04.123Z,97351.31
2023-03-11T06:53:31.574Z,97352.16
2023-03-11T06:56:12.655Z,97351.31
2023-03-11T06:58:41.541Z,97347.91
2023-03-11T07:01:17.142Z,97346.22
2023-03-11T07:03:46.415Z,97336.03
2023-03-11T07:06:15.089Z,97335.19
2023-03-11T07:08:41.905Z,97330.97
2023-03-11T07:11:25.937Z,97329.25
2023-03-11T07:13:54.002Z,97326.72
2023-03-11T07:16:26.326Z,97322.47
2023-03-11T07:18:55.768Z,97319.06
2023-03-11T07:21:23.451Z,97312.28
2023-03-11T07:23:59.181Z,97313.16
2023-03-11T07:26:26.510Z,97310.59
2023-03-11T07:28:55.102Z,97302.97
2023-03-11T07:31:25.372Z,97295.31
2023-03-11T07:33:52.590Z,97298.72
2023-03-11T07:36:21.961Z,97288.53
2023-03-11T07:38:49.865Z,97291.06
2023-03-11T07:41:16.515Z,97283.44
2023-03-11T07:43:44.652Z,97279.19
2023-03-11T07:46:18.417Z,97268.97
2023-03-11T07:48:45.888Z,97263.88
2023-03-11T07:51:18.950Z,97257.91
2023-03-11T07:53:45.615Z,97246.88
2023-03-11T07:56:13.926Z,97233.34
2023-03-11T07:58:41.074Z,97232.50
2023-03-11T08:01:21.995Z,97226.56
2023-03-11T08:03:51.135Z,97220.63
2023-03-11T08:06:20.766Z,97217.22
2023-03-11T08:08:48.517Z,97216.41
2023-03-11T08:11:16.133Z,97209.59
2023-03-11T08:13:44.110Z,97221.50
2023-03-11T08:16:13.221Z,97221.50
2023-03-11T08:18:40.263Z,97212.16
2023-03-11T08:21:12.441Z,97209.63
2023-03-11T08:23:39.148Z,97199.44
2023-03-11T08:26:07.165Z,97197.72
2023-03-11T08:28:34.129Z,97196.81
2023-03-11T08:31:01.727Z,97195.97
2023-03-11T08:33:28.348Z,97190.88
2023-03-11T08:35:55.304Z,97184.88
2023-03-11T08:38:22.065Z,97197.63
2023-03-11T08:40:48.632Z,97194.22
2023-03-11T08:43:15.285Z,97193.41
2023-03-11T08:45:42.563Z,97185.78
2023-03-11T08:48:12.151Z,97184.09
2023-03-11T08:50:53.380Z,97184.09
2023-03-11T08:53:22.423Z,97175.59
2023-03-11T08:55:50.266Z,97171.38
2023-03-11T08:58:16.934Z,97168.00
2023-03-11T09:00:43.655Z,97163.72
2023-03-11T09:03:10.277Z,97156.91
2023-03-11T09:05:37.196Z,97155.16
2023-03-11T09:08:05.689Z,97139.00
2023-03-11T09:10:32.572Z,97141.47
2023-03-11T09:12:59.218Z,97138.88
2023-03-11T09:15:25.818Z,97138.84
2023-03-11T09:17:53.100Z,97126.06
2023-03-11T09:20:20.130Z,97123.53
2023-03-11T09:22:46.874Z,97119.28
2023-03-11T09:25:13.983Z,97112.50
2023-03-11T09:27:41.577Z,97104.88
2023-03-11T09:30:10.108Z,97105.75
2023-03-11T09:32:36.851Z,97108.34
2023-03-11T09:35:04.354Z,97109.19
2023-03-11T09:37:30.871Z,97091.41
2023-03-11T09:39:57.420Z,97094.78
2023-03-11T09:42:53.026Z,97088.00
2023-03-11T09:45:24.638Z,97088.03
2023-03-11T09:48:04.286Z,97094.84
2023-03-11T09:50:40.671Z,97077.06
2023-03-11T09:53:28.309Z,97073.66
2023-03-11T09:56:17.295Z,97078.78
2023-03-11T09:58:52.914Z,97075.41
2023-03-11T10:01:39.287Z,97066.09
2023-03-11T10:04:23.828Z,97059.31
2023-03-11T10:06:50.433Z,97061.00
2023-03-11T10:09:40.735Z,97052.53
2023-03-11T10:12:21.712Z,97044.94
2023-03-11T10:15:06.535Z,97061.06
2023-03-11T10:18:00.001Z,97062.78
2023-03-11T10:20:35.694Z,97070.44
2023-03-11T10:23:25.678Z,97054.31
2023-03-11T10:25:55.387Z,97048.38
2023-03-11T10:28:27.374Z,97050.94
2023-03-11T10:31:01.644Z,97031.41
2023-03-11T10:34:23.714Z,97022.91
2023-03-11T10:36:57.817Z,97020.31
2023-03-11T10:39:25.499Z,97017.75
2023-03-11T10:41:54.345Z,97011.84
2023-03-11T10:44:29.344Z,97010.09
2023-03-11T10:46:55.929Z,97003.31
2023-03-11T10:49:22.487Z,96996.50
2023-03-11T10:51:52.596Z,96987.97
2023-03-11T10:54:34.598Z,96986.22
2023-03-11T10:57:18.915Z,96987.03
2023-03-11T10:59:48.332Z,96973.50
2023-03-11T11:02:58.236Z,96974.34
2023-03-11T11:05:32.715Z,96963.34
2023-03-11T11:08:14.054Z,96963.34
2023-03-11T11:11:20.335Z,96959.13
2023-03-11T11:13:57.692Z,96959.13
2023-03-11T11:16:24.781Z,96956.63
2023-03-11T11:19:03.780Z,96947.31
2023-03-11T11:21:50.046Z,96954.06
2023-03-11T11:24:23.876Z,96946.44
2023-03-11T11:27:26.667Z,96941.28
2023-03-11T11:30:08.869Z,96944.66
2023-03-11T11:32:36.600Z,96941.25
2023-03-11T11:35:05.154Z,96933.59
2023-03-11T11:37:40.089Z,96923.44
2023-03-11T11:40:15.797Z,96928.50
2023-03-11T11:43:05.308Z,96920.91
2023-03-11T11:45:37.797Z,96926.03
2023-03-11T11:48:11.869Z,96920.94
2023-03-11T11:50:48.430Z,96914.16
2023-03-11T11:53:42.470Z,96915.84
2023-03-11T11:56:09.027Z,96917.53
2023-03-11T11:58:35.879Z,96911.59
2023-03-11T12:01:21.882Z,96906.50
2023-03-11T12:04:04.416Z,96911.59
2023-03-11T12:06:40.379Z,96903.06
2023-03-11T12:09:09.528Z,96909.00
2023-03-11T12:11:41.914Z,96902.16
2023-03-11T12:14:35.686Z,96901.31
2023-03-11T12:17:04.607Z,96888.59
2023-03-11T12:19:46.923Z,96897.03
2023-03-11T12:22:25.739Z,96897.88
2023-03-11T12:25:12.204Z,96895.34
2023-03-11T12:27:47.873Z,96885.97
2023-03-11T12:30:23.390Z,96880.84
2023-03-11T12:32:58.803Z,96878.28
2023-03-11T12:35:30.929Z,96878.22
2023-03-11T12:38:03.254Z,96881.63
2023-03-11T12:40:46.215Z,96879.88
2023-03-11T12:43:30.864Z,96872.19
2023-03-11T12:46:01.529Z,96878.13
2023-03-11T12:48:50.424Z,96879.81
2023-03-11T12:51:40.978Z,96867.91
2023-03-11T12:54:33.313Z,96860.25
2023-03-11T12:57:15.744Z,96861.91
2023-03-11T13:00:19.648Z,96859.31
2023-03-11T13:03:13.429Z,96860.19
2023-03-11T13:06:04.297Z,96860.97
2023-03-11T13:08:49.370Z,96864.38
2023-03-11T13:11:34.475Z,96862.69
2023-03-11T13:14:26.512Z,96863.56
2023-03-11T13:16:53.777Z,96851.69
2023-03-11T13:19:26.148Z,96849.13
2023-03-11T13:21:54.617Z,96850.81
2023-03-11T13:24:22.020Z,96840.56
2023-03-11T13:27:04.421Z,96839.63
2023-03-11T13:29:37.140Z,96841.28
2023-03-11T13:32:32.369Z,96837.78
2023-03-11T13:35:09.304Z,96825.00
2023-03-11T13:38:01.184Z,96823.28
2023-03-11T13:40:39.703Z,96814.75
2023-03-11T13:43:15.128Z,96824.97
2023-03-11T13:45:50.448Z,96819.88
2023-03-11T13:48:21.567Z,96820.72
2023-03-11T13:50:53.218Z,96829.25
2023-03-11T13:53:29.765Z,96824.97
2023-03-11T13:55:56.419Z,96816.47
2023-03-11T13:58:25.576Z,96806.25
2023-03-11T14:00:58.443Z,96809.69
2023-03-11T14:03:28.402Z,96806.22
2023-03-11T14:06:08.068Z,96808.81
2023-03-11T14:08:36.673Z,96811.28
2023-03-11T14:11:11.934Z,96815.47
2023-03-11T14:13:40.787Z,96817.16
2023-03-11T14:16:08.707Z,96820.53
2023-03-11T14:18:40.799Z,96817.97
2023-03-11T14:21:14.868Z,96821.38
2023-03-11T14:23:47.879Z,96818.03
2023-03-11T14:26:20.580Z,96819.72
2023-03-11T14:28:52.870Z,96823.06
2023-03-11T14:31:24.554Z,96815.44
2023-03-11T14:33:56.506Z,96812.03
2023-03-11T14:36:23.361Z,96817.13
2023-03-11T14:38:49.938Z,96809.47
2023-03-11T14:41:16.540Z,96817.09
2023-03-11T14:43:49.352Z,96832.34
2023-03-11T14:46:22.564Z,96827.25
2023-03-11T14:48:49.537Z,96834.06
2023-03-11T14:51:26.968Z,96830.66
2023-03-11T14:54:15.359Z,96828.13
2023-03-11T14:56:47.993Z,96831.56
2023-03-11T14:59:16.485Z,96817.97
2023-03-11T15:01:46.583Z,96823.03
2023-03-11T15:04:37.986Z,96821.31
2023-03-11T15:07:05.825Z,96815.38
2023-03-11T15:09:33.044Z,96811.97
2023-03-11T15:12:02.401Z,96799.25
2023-03-11T15:14:35.404Z,96806.00
2023-03-11T15:17:35.350Z,96805.09
2023-03-11T15:20:07.408Z,96811.03
2023-03-11T15:22:38.537Z,96810.19
2023-03-11T15:25:16.666Z,96799.16
2023-03-11T15:27:43.237Z,96802.56
2023-03-11T15:30:29.371Z,96801.72
2023-03-11T15:32:57.023Z,96808.53
2023-03-11T15:35:31.148Z,96811.03
2023-03-11T15:38:21.110Z,96804.38
2023-03-11T15:40:57.678Z,96811.16
2023-03-11T15:43:28.122Z,96815.41
2023-03-11T15:45:57.623Z,96813.78
2023-03-11T15:48:24.662Z,96814.56
2023-03-11T15:50:54.894Z,96816.28
2023-03-11T15:53:23.102Z,96822.25
2023-03-11T15:55:49.905Z,96825.69
2023-03-11T15:58:19.037Z,96825.69
2023-03-11T16:00:56.013Z,96828.22
2023-03-11T16:03:23.884Z,96829.09
2023-03-11T16:05:50.836Z,96832.50
2023-03-11T16:08:17.396Z,96838.44
2023-03-11T16:10:44.032Z,96829.97
2023-03-11T16:13:13.458Z,96824.03
2023-03-11T16:15:42.345Z,96817.22
2023-03-11T16:18:09.901Z,96824.06
2023-03-11T16:20:36.377Z,96828.31
2023-03-11T16:23:03.171Z,96828.34
2023-03-11T16:25:33.749Z,96838.53
2023-03-11T16:28:01.053Z,96837.72
2023-03-11T16:30:29.639Z,96823.34
2023-03-11T16:32:56.629Z,96825.00
2023-03-11T16:35:23.281Z,96828.41
2023-03-11T16:37:50.298Z,96833.53
2023-03-11T16:40:25.257Z,96830.16
2023-03-11T16:42:57.618Z,96833.56
2023-03-11T16:45:24.218Z,96840.34
2023-03-11T16:47:50.823Z,96837.78
2023-03-11T16:50:17.421Z,96829.34
2023-03-11T16:52:43.933Z,96831.81
2023-03-11T16:55:10.699Z,96833.53
2023-03-11T16:57:38.768Z,96830.16
2023-03-11T17:00:06.936Z,96831.84
2023-03-11T17:02:33.814Z,96825.09
2023-03-11T17:05:00.526Z,96826.00
2023-03-11T17:07:27.402Z,96829.38
2023-03-11T17:09:53.960Z,96821.75
2023-03-11T17:12:23.192Z,96819.28
2023-03-11T17:14:49.723Z,96826.91
2023-03-11T17:17:16.310Z,96809.94
2023-03-11T17:19:42.948Z,96808.28
2023-03-11T17:22:09.475Z,96815.97
2023-03-11T17:24:36.780Z,96829.53
2023-03-11T17:27:04.463Z,96826.16
2023-03-11T17:29:31.167Z,96821.94
2023-03-11T17:31:57.734Z,96828.66
2023-03-11T17:34:24.244Z,96827.00
2023-03-11T17:36:51.277Z,96833.75
2023-03-11T17:39:17.957Z,96841.41
2023-03-11T17:41:44.651Z,96838.84
2023-03-11T17:44:12.735Z,96839.72
2023-03-11T17:46:40.239Z,96835.47
2023-03-11T17:49:08.142Z,96817.69
2023-03-11T17:51:34.755Z,96828.69
2023-03-11T17:54:01.485Z,96835.47
2023-03-11T17:56:28.136Z,96838.03
2023-03-11T17:58:54.679Z,96837.13
2023-03-11T18:01:23.807Z,96832.03
2023-03-11T18:03:50.888Z,96843.91
2023-03-11T18:06:18.726Z,96834.53
2023-03-11T18:08:45.319Z,96836.25
2023-03-11T18:11:15.913Z,96833.69
2023-03-11T18:13:43.524Z,96832.00
2023-03-11T18:16:19.247Z,96829.47
2023-03-11T18:18:46.494Z,96833.72
2023-03-11T18:21:19.152Z,96836.25
2023-03-11T18:23:46.495Z,96831.16
2023-03-11T18:26:16.324Z,96837.94
2023-03-11T18:28:43.477Z,96837.94
2023-03-11T18:31:20.983Z,96826.91
2023-03-11T18:33:56.833Z,96832.91
2023-03-11T18:36:25.202Z,96825.25
2023-03-11T18:38:53.079Z,96823.53
2023-03-11T18:41:20.067Z,96832.03
2023-03-11T18:43:46.656Z,96829.47
2023-03-11T18:46:16.332Z,96840.50
2023-03-11T18:48:43.173Z,96837.94
2023-03-11T18:51:09.844Z,96834.53
2023-03-11T18:53:36.758Z,96843.03
2023-03-11T18:56:06.874Z,96841.31
2023-03-11T18:58:34.276Z,96848.94
2023-03-11T19:01:09.618Z,96854.88
2023-03-11T19:03:36.357Z,96853.97
2023-03-11T19:06:03.415Z,96865.84
2023-03-11T19:08:30.072Z,96866.66
2023-03-11T19:10:56.757Z,96859.84
2023-03-11T19:13:23.400Z,96864.06
2023-03-11T19:15:50.741Z,96870.88
2023-03-11T19:18:17.381Z,96867.47
2023-03-11T19:20:44.347Z,96873.47
2023-03-11T19:23:11.384Z,96871.78
2023-03-11T19:25:38.043Z,96868.34
2023-03-11T19:28:04.812Z,96870.88
2023-03-11T19:30:31.441Z,96873.47
2023-03-11T19:32:58.114Z,96864.16
2023-03-11T19:35:24.703Z,96870.94
2023-03-11T19:37:56.741Z,96859.06
2023-03-11T19:40:23.838Z,96859.09
2023-03-11T19:42:50.562Z,96860.72
2023-03-11T19:45:17.160Z,96866.72
2023-03-11T19:47:46.516Z,96865.94
2023-03-11T19:50:13.068Z,96866.75
2023-03-11T19:52:39.619Z,96877.81
2023-03-11T19:55:06.779Z,96871.03
2023-03-11T19:57:33.366Z,96867.59
2023-03-11T20:00:00.934Z,96871.03
2023-03-11T20:02:27.602Z,96871.88
2023-03-11T20:04:54.240Z,96876.13
2023-03-11T20:07:20.950Z,96871.03
2023-03-11T20:09:47.660Z,96878.66
2023-03-11T20:12:14.483Z,96866.00
2023-03-11T20:14:42.493Z,96871.06
2023-03-11T20:17:09.435Z,96871.94
2023-03-11T20:19:36.463Z,96876.19
2023-03-11T20:22:03.166Z,96872.78
2023-03-11T20:24:29.784Z,96868.56
2023-03-11T20:26:56.457Z,96872.03
2023-03-11T20:29:23.090Z,96869.47
2023-03-11T20:31:50.326Z,96869.47
2023-03-11T20:34:18.172Z,96867.78
2023-03-11T20:36:44.809Z,96866.13
2023-03-11T20:39:12.581Z,96873.75
2023-03-11T20:41:40.727Z,96876.34
2023-03-11T20:44:08.867Z,96877.19
2023-03-11T20:46:35.575Z,96881.44
2023-03-11T20:49:03.270Z,96870.50
2023-03-11T20:51:30.135Z,96874.69
2023-03-11T20:53:56.921Z,96872.13
2023-03-11T20:56:26.006Z,96874.69
2023-03-11T20:58:55.823Z,96876.41
2023-03-11T21:01:30.775Z,96875.56
2023-03-11T21:04:00.547Z,96877.28
2023-03-11T21:06:38.684Z,96878.19
2023-03-11T21:09:08.424Z,96878.22
2023-03-11T21:11:35.020Z,96879.94
2023-03-11T21:14:01.877Z,96880.81
2023-03-11T21:16:29.139Z,96886.81
2023-03-11T21:18:56.058Z,96889.38
2023-03-11T21:21:23.167Z,96876.69
2023-03-11T21:23:49.964Z,96891.16
2023-03-11T21:26:17.775Z,96893.72
2023-03-11T21:28:46.828Z,96888.66
2023-03-11T21:31:17.166Z,96894.63
2023-03-11T21:33:44.440Z,96892.97
2023-03-11T21:36:12.938Z,96905.69
2023-03-11T21:38:42.685Z,96899.78
2023-03-11T21:41:25.285Z,96905.75
2023-03-11T21:43:54.102Z,96900.69
2023-03-11T21:46:23.863Z,96917.72
2023-03-11T21:48:51.561Z,96902.50
2023-03-11T21:51:19.275Z,96905.91
2023-03-11T21:53:46.177Z,96923.75
2023-03-11T21:56:13.721Z,96911.03
2023-03-11T21:58:40.834Z,96895.84
2023-03-11T22:01:08.819Z,96907.72
2023-03-11T22:03:36.506Z,96913.66
2023-03-11T22:06:09.617Z,96926.41
2023-03-11T22:08:36.318Z,96918.81
2023-03-11T22:11:06.445Z,96918.00
2023-03-11T22:13:33.212Z,96931.59
2023-03-11T22:16:03.770Z,96928.25
2023-03-11T22:18:30.615Z,96928.28
2023-03-11T22:20:59.345Z,96921.53
2023-03-11T22:23:26.169Z,96932.56
2023-03-11T22:25:52.780Z,96940.19
2023-03-11T22:28:19.345Z,96936.84
2023-03-11T22:30:45.964Z,96934.31
2023-03-11T22:33:12.569Z,96936.03
2023-03-11T22:35:39.209Z,96958.06
2023-03-11T22:38:06.018Z,96941.97
2023-03-11T22:40:34.547Z,96942.81
2023-03-11T22:43:01.059Z,96951.28
2023-03-11T22:45:27.616Z,96956.38
2023-03-11T22:47:54.887Z,96957.25
2023-03-11T22:50:21.814Z,96963.16
2023-03-11T22:52:48.366Z,96969.09
2023-03-11T22:55:15.055Z,96972.50
2023-03-11T22:57:41.577Z,96966.56
2023-03-11T23:00:17.125Z,96970.78
2023-03-11T23:02:48.230Z,96963.19
2023-03-11T23:05:16.020Z,96970.81
2023-03-11T23:07:43.494Z,96973.38
2023-03-11T23:10:12.054Z,96970.84
2023-03-11T23:12:38.846Z,96972.56
2023-03-11T23:15:08.530Z,96965.78
2023-03-11T23:17:35.110Z,96978.47
2023-03-11T23:20:01.902Z,96973.41
2023-03-11T23:22:28.568Z,96979.31
2023-03-11T23:24:55.168Z,96977.66
2023-03-11T23:27:22.345Z,96977.66
2023-03-11T23:29:50.539Z,96978.53
2023-03-11T23:32:17.118Z,96992.06
2023-03-11T23:34:43.846Z,96995.47
2023-03-11T23:37:10.420Z,97002.28
2023-03-11T23:39:36.995Z,97014.97
2023-03-11T23:42:14.939Z,97014.13
2023-03-11T23:44:50.708Z,97008.22
2023-03-11T23:47:17.264Z,97013.28
2023-03-11T23:49:43.784Z,97017.53
2023-03-11T23:52:10.413Z,97012.44
2023-03-11T23:54:36.996Z,97001.44
2023-03-11T23:57:03.928Z,96991.31
2023-03-11T23:59:30.630Z,96966.78
